sensor_id;sensor_type;location;lat;lon;timestamp;P1;durP1;ratioP1;P2;durP2;ratioP2
59649;SDS011;46162;57.568;25.814;2024-03-25T00:00:33;9.60;;;1.67;;
59649;SDS011;46162;57.568;25.814;2024-03-25T00:03:00;8.20;;;2.08;;
59649;SDS011;46162;57.568;25.814;2024-03-25T00:05:29;7.95;;;2.10;;
59649;SDS011;46162;57.568;25.814;2024-03-25T00:07:57;8.15;;;1.58;;
59649;SDS011;46162;57.568;25.814;2024-03-25T00:10:25;7.68;;;2.15;;
59649;SDS011;46162;57.568;25.814;2024-03-25T00:12:51;16.83;;;2.50;;
59649;SDS011;46162;57.568;25.814;2024-03-25T00:15:21;9.60;;;1.70;;
59649;SDS011;46162;57.568;25.814;2024-03-25T00:17:49;10.25;;;1.80;;
59649;SDS011;46162;57.568;25.814;2024-03-25T00:20:17;9.98;;;1.92;;
59649;SDS011;46162;57.568;25.814;2024-03-25T00:22:45;7.47;;;1.83;;
59649;SDS011;46162;57.568;25.814;2024-03-25T00:25:13;13.50;;;2.20;;
59649;SDS011;46162;57.568;25.814;2024-03-25T00:27:39;11.25;;;2.25;;
59649;SDS011;46162;57.568;25.814;2024-03-25T00:30:07;10.38;;;1.80;;
59649;SDS011;46162;57.568;25.814;2024-03-25T00:32:35;14.90;;;2.40;;
59649;SDS011;46162;57.568;25.814;2024-03-25T00:35:03;12.90;;;2.42;;
59649;SDS011;46162;57.568;25.814;2024-03-25T00:37:29;10.00;;;2.30;;
59649;SDS011;46162;57.568;25.814;2024-03-25T00:39:59;11.15;;;1.83;;
59649;SDS011;46162;57.568;25.814;2024-03-25T00:42:26;11.82;;;2.60;;
59649;SDS011;46162;57.568;25.814;2024-03-25T00:44:53;8.63;;;2.13;;
59649;SDS011;46162;57.568;25.814;2024-03-25T00:47:20;14.57;;;2.60;;
59649;SDS011;46162;57.568;25.814;2024-03-25T00:49:47;17.13;;;2.97;;
59649;SDS011;46162;57.568;25.814;2024-03-25T00:52:14;17.30;;;2.47;;
59649;SDS011;46162;57.568;25.814;2024-03-25T00:54:42;11.18;;;2.83;;
59649;SDS011;46162;57.568;25.814;2024-03-25T00:57:09;13.77;;;2.78;;
59649;SDS011;46162;57.568;25.814;2024-03-25T00:59:38;8.25;;;2.05;;
59649;SDS011;46162;57.568;25.814;2024-03-25T01:02:05;7.90;;;1.85;;
59649;SDS011;46162;57.568;25.814;2024-03-25T01:04:34;10.27;;;3.00;;
59649;SDS011;46162;57.568;25.814;2024-03-25T01:07:00;12.15;;;2.88;;
59649;SDS011;46162;57.568;25.814;2024-03-25T01:09:27;11.65;;;2.60;;
59649;SDS011;46162;57.568;25.814;2024-03-25T01:11:55;8.68;;;2.80;;
59649;SDS011;46162;57.568;25.814;2024-03-25T01:14:24;14.77;;;3.45;;
59649;SDS011;46162;57.568;25.814;2024-03-25T01:16:51;14.45;;;3.60;;
59649;SDS011;46162;57.568;25.814;2024-03-25T01:19:19;15.05;;;2.78;;
59649;SDS011;46162;57.568;25.814;2024-03-25T01:21:46;16.33;;;3.30;;
59649;SDS011;46162;57.568;25.814;2024-03-25T01:24:14;16.60;;;3.05;;
59649;SDS011;46162;57.568;25.814;2024-03-25T01:26:41;11.77;;;3.10;;
59649;SDS011;46162;57.568;25.814;2024-03-25T01:29:08;16.67;;;3.08;;
59649;SDS011;46162;57.568;25.814;2024-03-25T01:31:36;12.50;;;3.53;;
59649;SDS011;46162;57.568;25.814;2024-03-25T01:34:04;16.13;;;3.60;;
59649;SDS011;46162;57.568;25.814;2024-03-25T01:36:31;12.95;;;3.50;;
59649;SDS011;46162;57.568;25.814;2024-03-25T01:39:00;14.55;;;3.45;;
59649;SDS011;46162;57.568;25.814;2024-03-25T01:41:26;15.60;;;3.50;;
59649;SDS011;46162;57.568;25.814;2024-03-25T01:43:54;11.63;;;2.75;;
59649;SDS011;46162;57.568;25.814;2024-03-25T01:46:21;17.95;;;3.58;;
59649;SDS011;46162;57.568;25.814;2024-03-25T01:48:50;8.40;;;2.55;;
59649;SDS011;46162;57.568;25.814;2024-03-25T01:51:19;13.43;;;3.13;;
59649;SDS011;46162;57.568;25.814;2024-03-25T01:53:49;14.82;;;3.30;;
59649;SDS011;46162;57.568;25.814;2024-03-25T01:56:17;13.68;;;3.78;;
59649;SDS011;46162;57.568;25.814;2024-03-25T01:58:46;15.57;;;3.15;;
59649;SDS011;46162;57.568;25.814;2024-03-25T02:01:13;15.15;;;2.90;;
59649;SDS011;46162;57.568;25.814;2024-03-25T02:03:41;11.27;;;2.47;;
59649;SDS011;46162;57.568;25.814;2024-03-25T02:06:12;12.50;;;2.72;;
59649;SDS011;46162;57.568;25.814;2024-03-25T02:08:42;10.32;;;2.58;;
59649;SDS011;46162;57.568;25.814;2024-03-25T02:11:09;19.17;;;3.05;;
59649;SDS011;46162;57.568;25.814;2024-03-25T02:13:38;13.38;;;2.90;;
59649;SDS011;46162;57.568;25.814;2024-03-25T02:16:05;12.70;;;2.97;;
59649;SDS011;46162;57.568;25.814;2024-03-25T02:18:33;10.93;;;2.88;;
59649;SDS011;46162;57.568;25.814;2024-03-25T02:20:59;19.75;;;2.92;;
59649;SDS011;46162;57.568;25.814;2024-03-25T02:23:29;12.32;;;2.80;;
59649;SDS011;46162;57.568;25.814;2024-03-25T02:25:57;15.48;;;2.80;;
59649;SDS011;46162;57.568;25.814;2024-03-25T02:28:24;12.93;;;2.55;;
59649;SDS011;46162;57.568;25.814;2024-03-25T02:30:51;14.43;;;2.45;;
59649;SDS011;46162;57.568;25.814;2024-03-25T02:33:18;9.90;;;2.15;;
59649;SDS011;46162;57.568;25.814;2024-03-25T02:35:45;11.55;;;1.90;;
59649;SDS011;46162;57.568;25.814;2024-03-25T02:38:12;9.65;;;1.90;;
59649;SDS011;46162;57.568;25.814;2024-03-25T02:40:41;6.65;;;1.60;;
59649;SDS011;46162;57.568;25.814;2024-03-25T02:43:10;9.68;;;2.15;;
59649;SDS011;46162;57.568;25.814;2024-03-25T02:45:37;13.50;;;2.38;;
59649;SDS011;46162;57.568;25.814;2024-03-25T02:48:05;9.13;;;2.40;;
59649;SDS011;46162;57.568;25.814;2024-03-25T02:50:31;10.98;;;2.00;;
59649;SDS011;46162;57.568;25.814;2024-03-25T02:52:59;9.40;;;3.05;;
59649;SDS011;46162;57.568;25.814;2024-03-25T02:55:25;16.33;;;3.78;;
59649;SDS011;46162;57.568;25.814;2024-03-25T02:57:53;10.00;;;3.03;;
59649;SDS011;46162;57.568;25.814;2024-03-25T03:00:21;10.32;;;2.53;;
59649;SDS011;46162;57.568;25.814;2024-03-25T03:02:48;14.38;;;3.25;;
59649;SDS011;46162;57.568;25.814;2024-03-25T03:05:15;12.60;;;3.20;;
59649;SDS011;46162;57.568;25.814;2024-03-25T03:07:43;14.15;;;2.80;;
59649;SDS011;46162;57.568;25.814;2024-03-25T03:10:09;14.23;;;3.35;;
59649;SDS011;46162;57.568;25.814;2024-03-25T03:12:37;15.38;;;3.90;;
59649;SDS011;46162;57.568;25.814;2024-03-25T03:15:04;17.95;;;3.63;;
59649;SDS011;46162;57.568;25.814;2024-03-25T03:17:34;12.40;;;3.50;;
59649;SDS011;46162;57.568;25.814;2024-03-25T03:20:00;8.75;;;2.95;;
59649;SDS011;46162;57.568;25.814;2024-03-25T03:22:28;11.52;;;4.30;;
59649;SDS011;46162;57.568;25.814;2024-03-25T03:24:55;16.50;;;4.22;;
59649;SDS011;46162;57.568;25.814;2024-03-25T03:27:23;11.18;;;3.38;;
59649;SDS011;46162;57.568;25.814;2024-03-25T03:29:50;13.63;;;3.58;;
59649;SDS011;46162;57.568;25.814;2024-03-25T03:32:17;11.48;;;3.58;;
59649;SDS011;46162;57.568;25.814;2024-03-25T03:34:45;12.70;;;3.95;;
59649;SDS011;46162;57.568;25.814;2024-03-25T03:37:13;12.77;;;3.80;;
59649;SDS011;46162;57.568;25.814;2024-03-25T03:39:39;12.75;;;3.47;;
59649;SDS011;46162;57.568;25.814;2024-03-25T03:42:06;14.30;;;4.13;;
59649;SDS011;46162;57.568;25.814;2024-03-25T03:44:33;12.55;;;3.45;;
59649;SDS011;46162;57.568;25.814;2024-03-25T03:47:01;11.13;;;3.60;;
59649;SDS011;46162;57.568;25.814;2024-03-25T03:49:27;12.52;;;3.30;;
59649;SDS011;46162;57.568;25.814;2024-03-25T03:51:56;12.05;;;3.08;;
59649;SDS011;46162;57.568;25.814;2024-03-25T03:54:23;8.68;;;2.97;;
59649;SDS011;46162;57.568;25.814;2024-03-25T03:56:50;12.93;;;3.90;;
59649;SDS011;46162;57.568;25.814;2024-03-25T03:59:17;12.88;;;3.60;;
59649;SDS011;46162;57.568;25.814;2024-03-25T04:01:44;12.65;;;4.45;;
59649;SDS011;46162;57.568;25.814;2024-03-25T04:04:12;9.18;;;3.40;;
59649;SDS011;46162;57.568;25.814;2024-03-25T04:06:39;14.05;;;3.88;;
59649;SDS011;46162;57.568;25.814;2024-03-25T04:09:07;14.57;;;4.25;;
59649;SDS011;46162;57.568;25.814;2024-03-25T04:11:35;15.18;;;3.63;;
59649;SDS011;46162;57.568;25.814;2024-03-25T04:14:02;13.93;;;3.88;;
59649;SDS011;46162;57.568;25.814;2024-03-25T04:16:29;8.63;;;3.53;;
59649;SDS011;46162;57.568;25.814;2024-03-25T04:18:56;17.63;;;4.10;;
59649;SDS011;46162;57.568;25.814;2024-03-25T04:21:24;14.18;;;3.78;;
59649;SDS011;46162;57.568;25.814;2024-03-25T04:23:51;20.20;;;5.15;;
59649;SDS011;46162;57.568;25.814;2024-03-25T04:26:21;12.77;;;4.57;;
59649;SDS011;46162;57.568;25.814;2024-03-25T04:28:47;18.38;;;4.57;;
59649;SDS011;46162;57.568;25.814;2024-03-25T04:31:15;14.27;;;5.32;;
59649;SDS011;46162;57.568;25.814;2024-03-25T04:33:41;12.38;;;4.15;;
59649;SDS011;46162;57.568;25.814;2024-03-25T04:36:12;19.40;;;4.35;;
59649;SDS011;46162;57.568;25.814;2024-03-25T04:38:38;12.77;;;4.32;;
59649;SDS011;46162;57.568;25.814;2024-03-25T04:41:05;14.00;;;4.93;;
59649;SDS011;46162;57.568;25.814;2024-03-25T04:43:33;23.45;;;5.53;;
59649;SDS011;46162;57.568;25.814;2024-03-25T04:46:00;21.20;;;5.28;;
59649;SDS011;46162;57.568;25.814;2024-03-25T04:48:26;17.88;;;4.15;;
59649;SDS011;46162;57.568;25.814;2024-03-25T04:50:53;23.63;;;5.63;;
59649;SDS011;46162;57.568;25.814;2024-03-25T04:53:19;17.40;;;5.72;;
59649;SDS011;46162;57.568;25.814;2024-03-25T04:55:46;24.77;;;6.05;;
59649;SDS011;46162;57.568;25.814;2024-03-25T04:58:12;27.35;;;6.55;;
59649;SDS011;46162;57.568;25.814;2024-03-25T05:00:40;19.88;;;5.15;;
59649;SDS011;46162;57.568;25.814;2024-03-25T05:03:06;17.65;;;5.88;;
59649;SDS011;46162;57.568;25.814;2024-03-25T05:05:33;19.50;;;5.93;;
59649;SDS011;46162;57.568;25.814;2024-03-25T05:07:59;18.63;;;5.60;;
59649;SDS011;46162;57.568;25.814;2024-03-25T05:10:26;17.45;;;6.38;;
59649;SDS011;46162;57.568;25.814;2024-03-25T05:12:52;16.40;;;5.32;;
59649;SDS011;46162;57.568;25.814;2024-03-25T05:15:19;17.05;;;6.00;;
59649;SDS011;46162;57.568;25.814;2024-03-25T05:17:47;21.83;;;5.97;;
59649;SDS011;46162;57.568;25.814;2024-03-25T05:20:13;20.17;;;5.93;;
59649;SDS011;46162;57.568;25.814;2024-03-25T05:22:40;16.98;;;5.65;;
59649;SDS011;46162;57.568;25.814;2024-03-25T05:25:06;19.58;;;6.38;;
59649;SDS011;46162;57.568;25.814;2024-03-25T05:27:33;20.52;;;6.90;;
59649;SDS011;46162;57.568;25.814;2024-03-25T05:30:00;23.92;;;6.75;;
59649;SDS011;46162;57.568;25.814;2024-03-25T05:32:26;20.65;;;7.55;;
59649;SDS011;46162;57.568;25.814;2024-03-25T05:34:54;23.50;;;7.82;;
59649;SDS011;46162;57.568;25.814;2024-03-25T05:37:20;19.85;;;6.38;;
59649;SDS011;46162;57.568;25.814;2024-03-25T05:39:47;22.17;;;6.85;;
59649;SDS011;46162;57.568;25.814;2024-03-25T05:42:13;19.15;;;7.07;;
59649;SDS011;46162;57.568;25.814;2024-03-25T05:44:40;18.95;;;6.03;;
59649;SDS011;46162;57.568;25.814;2024-03-25T05:47:06;19.10;;;6.57;;
59649;SDS011;46162;57.568;25.814;2024-03-25T05:49:33;25.52;;;7.78;;
59649;SDS011;46162;57.568;25.814;2024-03-25T05:52:00;19.33;;;6.68;;
59649;SDS011;46162;57.568;25.814;2024-03-25T05:54:27;18.08;;;6.88;;
59649;SDS011;46162;57.568;25.814;2024-03-25T05:56:53;16.55;;;7.38;;
59649;SDS011;46162;57.568;25.814;2024-03-25T05:59:20;15.90;;;6.18;;
59649;SDS011;46162;57.568;25.814;2024-03-25T06:01:46;20.48;;;7.55;;
59649;SDS011;46162;57.568;25.814;2024-03-25T06:04:13;23.33;;;7.63;;
59649;SDS011;46162;57.568;25.814;2024-03-25T06:06:39;21.90;;;7.07;;
59649;SDS011;46162;57.568;25.814;2024-03-25T06:09:07;20.15;;;6.97;;
59649;SDS011;46162;57.568;25.814;2024-03-25T06:11:34;21.23;;;6.80;;
59649;SDS011;46162;57.568;25.814;2024-03-25T06:14:00;16.13;;;6.13;;
59649;SDS011;46162;57.568;25.814;2024-03-25T06:16:26;18.17;;;6.22;;
59649;SDS011;46162;57.568;25.814;2024-03-25T06:18:53;15.15;;;5.72;;
59649;SDS011;46162;57.568;25.814;2024-03-25T06:21:19;21.98;;;7.60;;
59649;SDS011;46162;57.568;25.814;2024-03-25T06:23:46;17.40;;;6.68;;
59649;SDS011;46162;57.568;25.814;2024-03-25T06:26:14;17.63;;;6.28;;
59649;SDS011;46162;57.568;25.814;2024-03-25T06:28:41;23.10;;;7.05;;
59649;SDS011;46162;57.568;25.814;2024-03-25T06:31:08;15.15;;;5.53;;
59649;SDS011;46162;57.568;25.814;2024-03-25T06:33:53;18.33;;;5.85;;
59649;SDS011;46162;57.568;25.814;2024-03-25T06:36:38;16.08;;;6.05;;
59649;SDS011;46162;57.568;25.814;2024-03-25T06:39:05;14.75;;;4.65;;
59649;SDS011;46162;57.568;25.814;2024-03-25T06:41:33;19.08;;;4.78;;
59649;SDS011;46162;57.568;25.814;2024-03-25T06:43:59;10.27;;;4.50;;
59649;SDS011;46162;57.568;25.814;2024-03-25T06:46:26;18.83;;;4.65;;
59649;SDS011;46162;57.568;25.814;2024-03-25T06:48:52;13.77;;;3.97;;
59649;SDS011;46162;57.568;25.814;2024-03-25T06:51:18;11.45;;;4.68;;
59649;SDS011;46162;57.568;25.814;2024-03-25T06:53:45;14.57;;;4.53;;
59649;SDS011;46162;57.568;25.814;2024-03-25T06:56:11;13.75;;;4.20;;
59649;SDS011;46162;57.568;25.814;2024-03-25T06:58:39;11.05;;;2.67;;
59649;SDS011;46162;57.568;25.814;2024-03-25T07:01:06;10.60;;;2.70;;
59649;SDS011;46162;57.568;25.814;2024-03-25T07:03:34;13.18;;;3.42;;
59649;SDS011;46162;57.568;25.814;2024-03-25T07:06:01;12.75;;;4.30;;
59649;SDS011;46162;57.568;25.814;2024-03-25T07:08:28;13.10;;;4.03;;
59649;SDS011;46162;57.568;25.814;2024-03-25T07:10:54;14.55;;;4.15;;
59649;SDS011;46162;57.568;25.814;2024-03-25T07:13:20;14.65;;;4.03;;
59649;SDS011;46162;57.568;25.814;2024-03-25T07:15:50;15.73;;;4.30;;
59649;SDS011;46162;57.568;25.814;2024-03-25T07:18:16;12.23;;;4.68;;
59649;SDS011;46162;57.568;25.814;2024-03-25T07:20:43;14.23;;;4.32;;
59649;SDS011;46162;57.568;25.814;2024-03-25T07:23:10;13.10;;;4.07;;
59649;SDS011;46162;57.568;25.814;2024-03-25T07:25:37;17.50;;;4.03;;
59649;SDS011;46162;57.568;25.814;2024-03-25T07:28:03;10.75;;;3.72;;
59649;SDS011;46162;57.568;25.814;2024-03-25T07:30:30;13.02;;;3.58;;
59649;SDS011;46162;57.568;25.814;2024-03-25T07:32:58;9.88;;;3.63;;
59649;SDS011;46162;57.568;25.814;2024-03-25T07:35:25;9.20;;;3.28;;
59649;SDS011;46162;57.568;25.814;2024-03-25T07:37:52;9.73;;;3.50;;
59649;SDS011;46162;57.568;25.814;2024-03-25T07:40:18;12.70;;;3.60;;
59649;SDS011;46162;57.568;25.814;2024-03-25T07:42:45;13.23;;;3.55;;
59649;SDS011;46162;57.568;25.814;2024-03-25T07:45:12;11.60;;;3.33;;
59649;SDS011;46162;57.568;25.814;2024-03-25T07:47:38;14.95;;;3.80;;
59649;SDS011;46162;57.568;25.814;2024-03-25T07:50:07;13.27;;;3.85;;
59649;SDS011;46162;57.568;25.814;2024-03-25T07:52:34;15.57;;;3.53;;
59649;SDS011;46162;57.568;25.814;2024-03-25T07:55:01;12.15;;;4.20;;
59649;SDS011;46162;57.568;25.814;2024-03-25T07:57:27;13.18;;;3.92;;
59649;SDS011;46162;57.568;25.814;2024-03-25T07:59:54;9.82;;;3.42;;
59649;SDS011;46162;57.568;25.814;2024-03-25T08:02:20;10.77;;;3.00;;
59649;SDS011;46162;57.568;25.814;2024-03-25T08:04:46;11.88;;;3.33;;
59649;SDS011;46162;57.568;25.814;2024-03-25T08:07:14;13.05;;;3.53;;
59649;SDS011;46162;57.568;25.814;2024-03-25T08:09:41;13.25;;;2.90;;
59649;SDS011;46162;57.568;25.814;2024-03-25T08:12:07;12.23;;;4.30;;
59649;SDS011;46162;57.568;25.814;2024-03-25T08:14:34;13.52;;;3.92;;
59649;SDS011;46162;57.568;25.814;2024-03-25T08:17:01;10.57;;;3.42;;
59649;SDS011;46162;57.568;25.814;2024-03-25T08:19:28;10.63;;;3.53;;
59649;SDS011;46162;57.568;25.814;2024-03-25T08:21:54;10.10;;;3.13;;
59649;SDS011;46162;57.568;25.814;2024-03-25T08:24:22;10.52;;;3.67;;
59649;SDS011;46162;57.568;25.814;2024-03-25T08:26:49;11.48;;;3.28;;
59649;SDS011;46162;57.568;25.814;2024-03-25T08:29:15;9.63;;;2.92;;
59649;SDS011;46162;57.568;25.814;2024-03-25T08:31:42;9.32;;;3.70;;
59649;SDS011;46162;57.568;25.814;2024-03-25T08:34:08;8.07;;;3.25;;
59649;SDS011;46162;57.568;25.814;2024-03-25T08:36:34;8.25;;;3.10;;
59649;SDS011;46162;57.568;25.814;2024-03-25T08:39:01;8.85;;;2.95;;
59649;SDS011;46162;57.568;25.814;2024-03-25T08:41:29;8.55;;;3.35;;
59649;SDS011;46162;57.568;25.814;2024-03-25T08:43:56;7.68;;;3.50;;
59649;SDS011;46162;57.568;25.814;2024-03-25T08:46:22;9.75;;;2.75;;
59649;SDS011;46162;57.568;25.814;2024-03-25T08:48:49;8.88;;;3.03;;
59649;SDS011;46162;57.568;25.814;2024-03-25T08:51:16;7.05;;;2.72;;
59649;SDS011;46162;57.568;25.814;2024-03-25T08:53:42;7.20;;;2.40;;
59649;SDS011;46162;57.568;25.814;2024-03-25T08:56:09;5.97;;;2.15;;
59649;SDS011;46162;57.568;25.814;2024-03-25T08:58:37;8.55;;;2.35;;
59649;SDS011;46162;57.568;25.814;2024-03-25T09:01:03;5.65;;;1.80;;
59649;SDS011;46162;57.568;25.814;2024-03-25T09:03:31;6.43;;;1.52;;
59649;SDS011;46162;57.568;25.814;2024-03-25T09:05:57;3.80;;;1.13;;
59649;SDS011;46162;57.568;25.814;2024-03-25T09:08:24;3.55;;;0.90;;
59649;SDS011;46162;57.568;25.814;2024-03-25T09:10:50;3.50;;;0.93;;
59649;SDS011;46162;57.568;25.814;2024-03-25T09:13:29;3.97;;;0.75;;
59649;SDS011;46162;57.568;25.814;2024-03-25T09:15:57;4.88;;;0.98;;
59649;SDS011;46162;57.568;25.814;2024-03-25T09:18:24;3.55;;;0.70;;
59649;SDS011;46162;57.568;25.814;2024-03-25T09:20:52;5.75;;;1.10;;
59649;SDS011;46162;57.568;25.814;2024-03-25T09:23:19;3.92;;;0.98;;
59649;SDS011;46162;57.568;25.814;2024-03-25T09:25:51;3.33;;;0.98;;
59649;SDS011;46162;57.568;25.814;2024-03-25T09:28:18;4.18;;;1.20;;
59649;SDS011;46162;57.568;25.814;2024-03-25T09:30:47;3.17;;;0.95;;
59649;SDS011;46162;57.568;25.814;2024-03-25T09:33:15;3.08;;;0.85;;
59649;SDS011;46162;57.568;25.814;2024-03-25T09:35:42;3.35;;;0.80;;
59649;SDS011;46162;57.568;25.814;2024-03-25T09:38:08;3.90;;;0.60;;
59649;SDS011;46162;57.568;25.814;2024-03-25T09:40:35;2.15;;;0.45;;
59649;SDS011;46162;57.568;25.814;2024-03-25T09:43:05;3.13;;;0.73;;
59649;SDS011;46162;57.568;25.814;2024-03-25T09:45:37;3.53;;;0.50;;
59649;SDS011;46162;57.568;25.814;2024-03-25T09:48:06;4.82;;;0.80;;
59649;SDS011;46162;57.568;25.814;2024-03-25T09:50:35;3.28;;;0.70;;
59649;SDS011;46162;57.568;25.814;2024-03-25T09:53:04;3.13;;;0.98;;
59649;SDS011;46162;57.568;25.814;2024-03-25T09:55:30;4.03;;;0.65;;
59649;SDS011;46162;57.568;25.814;2024-03-25T09:57:57;2.20;;;0.40;;
59649;SDS011;46162;57.568;25.814;2024-03-25T10:00:25;4.40;;;1.05;;
59649;SDS011;46162;57.568;25.814;2024-03-25T10:02:52;4.15;;;0.80;;
59649;SDS011;46162;57.568;25.814;2024-03-25T10:05:19;3.10;;;0.70;;
59649;SDS011;46162;57.568;25.814;2024-03-25T10:07:51;3.53;;;0.82;;
59649;SDS011;46162;57.568;25.814;2024-03-25T10:10:20;5.25;;;0.60;;
59649;SDS011;46162;57.568;25.814;2024-03-25T10:12:48;2.28;;;0.45;;
59649;SDS011;46162;57.568;25.814;2024-03-25T10:15:15;3.17;;;0.50;;
59649;SDS011;46162;57.568;25.814;2024-03-25T10:17:42;3.08;;;1.00;;
59649;SDS011;46162;57.568;25.814;2024-03-25T10:20:16;3.53;;;0.95;;
59649;SDS011;46162;57.568;25.814;2024-03-25T10:22:42;4.18;;;0.85;;
59649;SDS011;46162;57.568;25.814;2024-03-25T10:25:20;2.85;;;0.90;;
59649;SDS011;46162;57.568;25.814;2024-03-25T10:27:54;3.97;;;0.93;;
59649;SDS011;46162;57.568;25.814;2024-03-25T10:30:24;3.33;;;1.00;;
59649;SDS011;46162;57.568;25.814;2024-03-25T10:32:59;2.97;;;0.98;;
59649;SDS011;46162;57.568;25.814;2024-03-25T10:35:27;2.58;;;0.80;;
59649;SDS011;46162;57.568;25.814;2024-03-25T10:37:55;4.05;;;0.90;;
59649;SDS011;46162;57.568;25.814;2024-03-25T10:40:27;2.78;;;0.82;;
59649;SDS011;46162;57.568;25.814;2024-03-25T10:42:56;2.92;;;0.88;;
59649;SDS011;46162;57.568;25.814;2024-03-25T10:45:27;2.60;;;0.65;;
59649;SDS011;46162;57.568;25.814;2024-03-25T10:47:57;3.03;;;0.68;;
59649;SDS011;46162;57.568;25.814;2024-03-25T10:50:26;3.35;;;0.68;;
59649;SDS011;46162;57.568;25.814;2024-03-25T10:52:56;2.90;;;0.65;;
59649;SDS011;46162;57.568;25.814;2024-03-25T10:55:28;2.50;;;0.50;;
59649;SDS011;46162;57.568;25.814;2024-03-25T10:57:55;2.95;;;0.60;;
59649;SDS011;46162;57.568;25.814;2024-03-25T11:00:22;2.75;;;0.68;;
59649;SDS011;46162;57.568;25.814;2024-03-25T11:02:49;2.33;;;0.40;;
59649;SDS011;46162;57.568;25.814;2024-03-25T11:05:18;2.03;;;0.40;;
59649;SDS011;46162;57.568;25.814;2024-03-25T11:07:45;2.20;;;0.40;;
59649;SDS011;46162;57.568;25.814;2024-03-25T11:10:12;2.85;;;0.30;;
59649;SDS011;46162;57.568;25.814;2024-03-25T11:12:40;2.45;;;0.30;;
59649;SDS011;46162;57.568;25.814;2024-03-25T11:15:08;2.13;;;0.50;;
59649;SDS011;46162;57.568;25.814;2024-03-25T11:17:35;2.33;;;0.40;;
59649;SDS011;46162;57.568;25.814;2024-03-25T11:20:06;2.20;;;0.40;;
59649;SDS011;46162;57.568;25.814;2024-03-25T11:22:36;3.45;;;0.50;;
59649;SDS011;46162;57.568;25.814;2024-03-25T11:25:15;2.55;;;0.47;;
59649;SDS011;46162;57.568;25.814;2024-03-25T11:27:44;2.88;;;0.30;;
59649;SDS011;46162;57.568;25.814;2024-03-25T11:30:11;1.48;;;0.30;;
59649;SDS011;46162;57.568;25.814;2024-03-25T11:32:45;1.92;;;0.20;;
59649;SDS011;46162;57.568;25.814;2024-03-25T11:35:13;1.80;;;0.40;;
59649;SDS011;46162;57.568;25.814;2024-03-25T11:37:40;2.22;;;0.35;;
59649;SDS011;46162;57.568;25.814;2024-03-25T11:40:07;1.75;;;0.40;;
59649;SDS011;46162;57.568;25.814;2024-03-25T11:42:35;1.83;;;0.30;;
59649;SDS011;46162;57.568;25.814;2024-03-25T11:45:05;7.28;;;2.60;;
59649;SDS011;46162;57.568;25.814;2024-03-25T11:47:32;2.88;;;0.40;;
59649;SDS011;46162;57.568;25.814;2024-03-25T11:50:00;2.17;;;0.20;;
59649;SDS011;46162;57.568;25.814;2024-03-25T11:52:33;1.90;;;0.50;;
59649;SDS011;46162;57.568;25.814;2024-03-25T11:55:00;2.33;;;0.30;;
59649;SDS011;46162;57.568;25.814;2024-03-25T11:57:27;2.45;;;0.50;;
59649;SDS011;46162;57.568;25.814;2024-03-25T11:59:54;5.18;;;0.47;;
59649;SDS011;46162;57.568;25.814;2024-03-25T12:02:22;2.03;;;0.47;;
59649;SDS011;46162;57.568;25.814;2024-03-25T12:04:49;2.10;;;0.40;;
59649;SDS011;46162;57.568;25.814;2024-03-25T12:07:15;1.65;;;0.20;;
59649;SDS011;46162;57.568;25.814;2024-03-25T12:09:42;1.42;;;0.28;;
59649;SDS011;46162;57.568;25.814;2024-03-25T12:12:28;3.53;;;0.25;;
59649;SDS011;46162;57.568;25.814;2024-03-25T12:14:55;1.92;;;0.22;;
59649;SDS011;46162;57.568;25.814;2024-03-25T12:17:27;1.95;;;0.52;;
59649;SDS011;46162;57.568;25.814;2024-03-25T12:19:58;1.63;;;0.20;;
59649;SDS011;46162;57.568;25.814;2024-03-25T12:22:26;1.10;;;0.20;;
59649;SDS011;46162;57.568;25.814;2024-03-25T12:24:52;2.00;;;0.20;;
59649;SDS011;46162;57.568;25.814;2024-03-25T12:27:19;0.90;;;0.10;;
59649;SDS011;46162;57.568;25.814;2024-03-25T12:29:45;1.52;;;0.10;;
59649;SDS011;46162;57.568;25.814;2024-03-25T12:32:40;1.05;;;0.15;;
59649;SDS011;46162;57.568;25.814;2024-03-25T12:35:08;1.02;;;0.20;;
59649;SDS011;46162;57.568;25.814;2024-03-25T12:37:37;1.80;;;0.28;;
59649;SDS011;46162;57.568;25.814;2024-03-25T12:40:04;1.48;;;0.20;;
59649;SDS011;46162;57.568;25.814;2024-03-25T12:42:32;3.42;;;0.70;;
59649;SDS011;46162;57.568;25.814;2024-03-25T12:44:58;1.50;;;0.20;;
59649;SDS011;46162;57.568;25.814;2024-03-25T12:47:29;1.65;;;0.20;;
59649;SDS011;46162;57.568;25.814;2024-03-25T12:49:57;1.70;;;0.40;;
59649;SDS011;46162;57.568;25.814;2024-03-25T12:52:24;2.78;;;0.30;;
59649;SDS011;46162;57.568;25.814;2024-03-25T12:54:51;2.08;;;0.50;;
59649;SDS011;46162;57.568;25.814;2024-03-25T12:57:17;2.78;;;0.43;;
59649;SDS011;46162;57.568;25.814;2024-03-25T12:59:44;4.35;;;0.80;;
59649;SDS011;46162;57.568;25.814;2024-03-25T13:02:11;3.75;;;0.90;;
59649;SDS011;46162;57.568;25.814;2024-03-25T13:04:38;1.92;;;0.50;;
59649;SDS011;46162;57.568;25.814;2024-03-25T13:07:06;3.72;;;1.08;;
59649;SDS011;46162;57.568;25.814;2024-03-25T13:09:33;4.05;;;1.25;;
59649;SDS011;46162;57.568;25.814;2024-03-25T13:11:59;2.90;;;0.70;;
59649;SDS011;46162;57.568;25.814;2024-03-25T13:14:26;4.90;;;1.45;;
59649;SDS011;46162;57.568;25.814;2024-03-25T13:16:52;4.05;;;0.98;;
59649;SDS011;46162;57.568;25.814;2024-03-25T13:19:19;3.90;;;0.98;;
59649;SDS011;46162;57.568;25.814;2024-03-25T13:21:45;3.47;;;1.30;;
59649;SDS011;46162;57.568;25.814;2024-03-25T13:24:14;4.07;;;0.88;;
59649;SDS011;46162;57.568;25.814;2024-03-25T13:26:41;4.82;;;1.30;;
59649;SDS011;46162;57.568;25.814;2024-03-25T13:29:07;4.93;;;1.83;;
59649;SDS011;46162;57.568;25.814;2024-03-25T13:31:34;6.78;;;1.80;;
59649;SDS011;46162;57.568;25.814;2024-03-25T13:34:00;4.18;;;1.52;;
59649;SDS011;46162;57.568;25.814;2024-03-25T13:36:27;4.90;;;1.73;;
59649;SDS011;46162;57.568;25.814;2024-03-25T13:38:53;5.20;;;1.75;;
59649;SDS011;46162;57.568;25.814;2024-03-25T13:41:21;5.95;;;1.83;;
59649;SDS011;46162;57.568;25.814;2024-03-25T13:43:47;4.30;;;1.70;;
59649;SDS011;46162;57.568;25.814;2024-03-25T13:46:14;4.03;;;1.50;;
59649;SDS011;46162;57.568;25.814;2024-03-25T13:48:41;5.55;;;1.45;;
59649;SDS011;46162;57.568;25.814;2024-03-25T13:51:07;5.30;;;2.13;;
59649;SDS011;46162;57.568;25.814;2024-03-25T13:53:34;7.18;;;1.95;;
59649;SDS011;46162;57.568;25.814;2024-03-25T13:56:00;5.05;;;2.25;;
59649;SDS011;46162;57.568;25.814;2024-03-25T13:58:28;7.40;;;2.58;;
59649;SDS011;46162;57.568;25.814;2024-03-25T14:00:55;4.15;;;1.50;;
59649;SDS011;46162;57.568;25.814;2024-03-25T14:03:22;5.63;;;2.60;;
59649;SDS011;46162;57.568;25.814;2024-03-25T14:05:48;5.32;;;2.03;;
59649;SDS011;46162;57.568;25.814;2024-03-25T14:08:15;6.32;;;2.42;;
59649;SDS011;46162;57.568;25.814;2024-03-25T14:10:42;4.25;;;2.08;;
59649;SDS011;46162;57.568;25.814;2024-03-25T14:13:09;6.57;;;2.40;;
59649;SDS011;46162;57.568;25.814;2024-03-25T14:15:37;6.43;;;2.65;;
59649;SDS011;46162;57.568;25.814;2024-03-25T14:18:03;5.00;;;2.10;;
59649;SDS011;46162;57.568;25.814;2024-03-25T14:20:31;7.13;;;2.58;;
59649;SDS011;46162;57.568;25.814;2024-03-25T14:22:57;6.90;;;2.17;;
59649;SDS011;46162;57.568;25.814;2024-03-25T14:25:24;5.00;;;2.10;;
59649;SDS011;46162;57.568;25.814;2024-03-25T14:27:50;6.03;;;1.98;;
59649;SDS011;46162;57.568;25.814;2024-03-25T14:30:16;5.68;;;1.85;;